sensor_id;sensor_type;location;lat;lon;timestamp;P1;durP1;ratioP1;P2;durP2;ratioP2
44116;SDS011;29781;49.480;8.512;2023-05-10T00:02:23;2.15;;;1.10;;
44116;SDS011;29781;49.480;8.512;2023-05-10T00:04:49;1.90;;;1.00;;
44116;SDS011;29781;49.480;8.512;2023-05-10T00:07:15;1.10;;;1.00;;
44116;SDS011;29781;49.480;8.512;2023-05-10T00:09:42;1.13;;;1.02;;
44116;SDS011;29781;49.480;8.512;2023-05-10T00:12:08;1.95;;;1.00;;
44116;SDS011;29781;49.480;8.512;2023-05-10T00:14:34;1.80;;;1.08;;
44116;SDS011;29781;49.480;8.512;2023-05-10T00:17:00;2.53;;;1.38;;
44116;SDS011;29781;49.480;8.512;2023-05-10T00:19:25;3.63;;;1.67;;
44116;SDS011;29781;49.480;8.512;2023-05-10T00:21:51;2.15;;;1.20;;
44116;SDS011;29781;49.480;8.512;2023-05-10T00:24:17;1.10;;;1.00;;
44116;SDS011;29781;49.480;8.512;2023-05-10T00:26:42;2.55;;;1.35;;
44116;SDS011;29781;49.480;8.512;2023-05-10T00:29:08;1.48;;;1.10;;
44116;SDS011;29781;49.480;8.512;2023-05-10T00:31:33;4.25;;;1.20;;
44116;SDS011;29781;49.480;8.512;2023-05-10T00:33:59;1.05;;;1.02;;
44116;SDS011;29781;49.480;8.512;2023-05-10T00:36:24;1.83;;;1.13;;
44116;SDS011;29781;49.480;8.512;2023-05-10T00:38:50;1.00;;;0.90;;
44116;SDS011;29781;49.480;8.512;2023-05-10T00:41:15;2.13;;;1.13;;
44116;SDS011;29781;49.480;8.512;2023-05-10T00:43:41;3.08;;;1.20;;
44116;SDS011;29781;49.480;8.512;2023-05-10T00:46:07;1.33;;;1.23;;
44116;SDS011;29781;49.480;8.512;2023-05-10T00:48:32;1.83;;;1.05;;
44116;SDS011;29781;49.480;8.512;2023-05-10T00:50:59;1.10;;;1.10;;
44116;SDS011;29781;49.480;8.512;2023-05-10T00:53:26;2.15;;;1.23;;
44116;SDS011;29781;49.480;8.512;2023-05-10T00:55:52;3.40;;;1.20;;
44116;SDS011;29781;49.480;8.512;2023-05-10T00:58:18;1.30;;;1.20;;
44116;SDS011;29781;49.480;8.512;2023-05-10T01:00:43;1.55;;;1.20;;
44116;SDS011;29781;49.480;8.512;2023-05-10T01:03:13;1.30;;;1.17;;
44116;SDS011;29781;49.480;8.512;2023-05-10T01:05:39;1.33;;;1.20;;
44116;SDS011;29781;49.480;8.512;2023-05-10T01:08:04;1.05;;;1.05;;
44116;SDS011;29781;49.480;8.512;2023-05-10T01:10:30;1.63;;;1.25;;
44116;SDS011;29781;49.480;8.512;2023-05-10T01:12:56;1.52;;;1.42;;
44116;SDS011;29781;49.480;8.512;2023-05-10T01:15:24;1.52;;;1.33;;
44116;SDS011;29781;49.480;8.512;2023-05-10T01:17:50;3.03;;;1.42;;
44116;SDS011;29781;49.480;8.512;2023-05-10T01:20:17;2.75;;;1.50;;
44116;SDS011;29781;49.480;8.512;2023-05-10T01:22:50;1.48;;;1.38;;
44116;SDS011;29781;49.480;8.512;2023-05-10T01:28:17;1.40;;;1.30;;
44116;SDS011;29781;49.480;8.512;2023-05-10T01:31:16;2.60;;;1.20;;
44116;SDS011;29781;49.480;8.512;2023-05-10T01:34:01;2.30;;;1.13;;
44116;SDS011;29781;49.480;8.512;2023-05-10T01:39:24;3.53;;;1.20;;
44116;SDS011;29781;49.480;8.512;2023-05-10T01:42:08;2.15;;;1.10;;
44116;SDS011;29781;49.480;8.512;2023-05-10T01:44:58;1.40;;;1.30;;
44116;SDS011;29781;49.480;8.512;2023-05-10T01:47:35;2.47;;;1.10;;
44116;SDS011;29781;49.480;8.512;2023-05-10T01:50:06;2.70;;;2.15;;
44116;SDS011;29781;49.480;8.512;2023-05-10T01:52:41;0.98;;;0.90;;
44116;SDS011;29781;49.480;8.512;2023-05-10T01:55:09;1.20;;;1.10;;
44116;SDS011;29781;49.480;8.512;2023-05-10T01:57:39;0.70;;;0.70;;
44116;SDS011;29781;49.480;8.512;2023-05-10T02:00:06;1.85;;;1.27;;
44116;SDS011;29781;49.480;8.512;2023-05-10T02:02:34;1.33;;;0.85;;
44116;SDS011;29781;49.480;8.512;2023-05-10T02:05:04;1.02;;;0.90;;
44116;SDS011;29781;49.480;8.512;2023-05-10T02:07:32;0.80;;;0.80;;
44116;SDS011;29781;49.480;8.512;2023-05-10T02:10:01;1.83;;;0.82;;
44116;SDS011;29781;49.480;8.512;2023-05-10T02:12:29;1.52;;;0.90;;
44116;SDS011;29781;49.480;8.512;2023-05-10T02:14:59;1.00;;;1.00;;
44116;SDS011;29781;49.480;8.512;2023-05-10T02:17:27;1.27;;;1.00;;
44116;SDS011;29781;49.480;8.512;2023-05-10T02:19:55;1.13;;;1.02;;
44116;SDS011;29781;49.480;8.512;2023-05-10T02:22:22;1.40;;;1.30;;
44116;SDS011;29781;49.480;8.512;2023-05-10T02:24:50;1.38;;;1.27;;
44116;SDS011;29781;49.480;8.512;2023-05-10T02:27:16;1.27;;;1.10;;
44116;SDS011;29781;49.480;8.512;2023-05-10T02:29:44;1.38;;;1.17;;
44116;SDS011;29781;49.480;8.512;2023-05-10T02:32:11;1.23;;;1.13;;
44116;SDS011;29781;49.480;8.512;2023-05-10T02:34:38;1.40;;;1.30;;
44116;SDS011;29781;49.480;8.512;2023-05-10T02:37:04;1.50;;;1.40;;
44116;SDS011;29781;49.480;8.512;2023-05-10T02:39:30;1.90;;;1.35;;
44116;SDS011;29781;49.480;8.512;2023-05-10T02:41:57;1.50;;;1.40;;
44116;SDS011;29781;49.480;8.512;2023-05-10T02:44:23;1.48;;;1.38;;
44116;SDS011;29781;49.480;8.512;2023-05-10T02:46:51;2.17;;;1.35;;
44116;SDS011;29781;49.480;8.512;2023-05-10T02:49:17;2.83;;;1.30;;
44116;SDS011;29781;49.480;8.512;2023-05-10T02:51:44;1.80;;;1.60;;
44116;SDS011;29781;49.480;8.512;2023-05-10T02:54:18;2.42;;;1.50;;
44116;SDS011;29781;49.480;8.512;2023-05-10T02:56:50;2.25;;;1.50;;
44116;SDS011;29781;49.480;8.512;2023-05-10T02:59:18;2.65;;;1.75;;
44116;SDS011;29781;49.480;8.512;2023-05-10T03:01:44;3.10;;;1.67;;
44116;SDS011;29781;49.480;8.512;2023-05-10T03:04:10;1.90;;;1.50;;
44116;SDS011;29781;49.480;8.512;2023-05-10T03:06:35;2.00;;;1.70;;
44116;SDS011;29781;49.480;8.512;2023-05-10T03:09:01;1.80;;;1.50;;
44116;SDS011;29781;49.480;8.512;2023-05-10T03:17:04;2.10;;;1.60;;
44116;SDS011;29781;49.480;8.512;2023-05-10T03:19:47;3.03;;;2.10;;
44116;SDS011;29781;49.480;8.512;2023-05-10T03:22:32;3.30;;;1.60;;
44116;SDS011;29781;49.480;8.512;2023-05-10T03:25:10;2.45;;;1.92;;
44116;SDS011;29781;49.480;8.512;2023-05-10T03:27:39;2.90;;;2.22;;
44116;SDS011;29781;49.480;8.512;2023-05-10T03:30:07;7.80;;;2.13;;
44116;SDS011;29781;49.480;8.512;2023-05-10T03:32:35;3.90;;;2.00;;
44116;SDS011;29781;49.480;8.512;2023-05-10T03:35:01;2.22;;;1.80;;
44116;SDS011;29781;49.480;8.512;2023-05-10T03:37:31;1.92;;;1.67;;
44116;SDS011;29781;49.480;8.512;2023-05-10T03:39:56;1.65;;;1.55;;
44116;SDS011;29781;49.480;8.512;2023-05-10T03:42:22;2.50;;;1.98;;
44116;SDS011;29781;49.480;8.512;2023-05-10T03:44:47;2.38;;;2.15;;
44116;SDS011;29781;49.480;8.512;2023-05-10T03:47:14;2.38;;;2.10;;
44116;SDS011;29781;49.480;8.512;2023-05-10T03:49:39;3.40;;;2.28;;
44116;SDS011;29781;49.480;8.512;2023-05-10T03:52:05;8.13;;;2.22;;
44116;SDS011;29781;49.480;8.512;2023-05-10T03:54:31;2.33;;;2.20;;
44116;SDS011;29781;49.480;8.512;2023-05-10T03:56:57;2.80;;;2.35;;
44116;SDS011;29781;49.480;8.512;2023-05-10T03:59:22;4.53;;;2.30;;
44116;SDS011;29781;49.480;8.512;2023-05-10T04:01:48;2.42;;;2.22;;
44116;SDS011;29781;49.480;8.512;2023-05-10T04:04:13;6.65;;;2.60;;
44116;SDS011;29781;49.480;8.512;2023-05-10T04:06:39;3.65;;;2.38;;
44116;SDS011;29781;49.480;8.512;2023-05-10T04:09:04;4.55;;;2.30;;
44116;SDS011;29781;49.480;8.512;2023-05-10T04:11:30;5.28;;;2.50;;
44116;SDS011;29781;49.480;8.512;2023-05-10T04:13:56;2.67;;;2.40;;
44116;SDS011;29781;49.480;8.512;2023-05-10T04:16:21;2.58;;;2.33;;
44116;SDS011;29781;49.480;8.512;2023-05-10T04:18:47;3.35;;;2.33;;
44116;SDS011;29781;49.480;8.512;2023-05-10T04:21:13;2.78;;;2.50;;
44116;SDS011;29781;49.480;8.512;2023-05-10T04:23:39;2.60;;;2.40;;
44116;SDS011;29781;49.480;8.512;2023-05-10T04:26:05;4.18;;;2.70;;
44116;SDS011;29781;49.480;8.512;2023-05-10T04:28:31;2.45;;;2.25;;
44116;SDS011;29781;49.480;8.512;2023-05-10T04:31:00;2.60;;;2.40;;
44116;SDS011;29781;49.480;8.512;2023-05-10T04:33:29;2.50;;;2.20;;
44116;SDS011;29781;49.480;8.512;2023-05-10T04:35:55;2.58;;;2.33;;
44116;SDS011;29781;49.480;8.512;2023-05-10T04:38:20;3.63;;;2.15;;
44116;SDS011;29781;49.480;8.512;2023-05-10T04:40:46;2.30;;;2.10;;
44116;SDS011;29781;49.480;8.512;2023-05-10T04:43:11;3.80;;;1.90;;
44116;SDS011;29781;49.480;8.512;2023-05-10T04:45:37;2.72;;;1.90;;
44116;SDS011;29781;49.480;8.512;2023-05-10T04:48:02;5.22;;;2.33;;
44116;SDS011;29781;49.480;8.512;2023-05-10T04:50:28;2.17;;;1.98;;
44116;SDS011;29781;49.480;8.512;2023-05-10T04:52:54;2.65;;;2.25;;
44116;SDS011;29781;49.480;8.512;2023-05-10T04:55:19;3.40;;;2.40;;
44116;SDS011;29781;49.480;8.512;2023-05-10T04:57:45;9.63;;;3.20;;
44116;SDS011;29781;49.480;8.512;2023-05-10T05:00:11;2.65;;;2.35;;
44116;SDS011;29781;49.480;8.512;2023-05-10T05:02:37;3.15;;;2.20;;
44116;SDS011;29781;49.480;8.512;2023-05-10T05:05:03;4.53;;;2.45;;
44116;SDS011;29781;49.480;8.512;2023-05-10T05:07:29;7.93;;;2.50;;
44116;SDS011;29781;49.480;8.512;2023-05-10T05:09:55;4.28;;;2.85;;
44116;SDS011;29781;49.480;8.512;2023-05-10T05:12:21;3.10;;;2.80;;
44116;SDS011;29781;49.480;8.512;2023-05-10T05:14:46;3.17;;;2.63;;
44116;SDS011;29781;49.480;8.512;2023-05-10T05:17:12;3.08;;;2.58;;
44116;SDS011;29781;49.480;8.512;2023-05-10T05:19:38;3.40;;;2.70;;
44116;SDS011;29781;49.480;8.512;2023-05-10T05:22:06;3.00;;;2.80;;
44116;SDS011;29781;49.480;8.512;2023-05-10T05:24:35;3.00;;;2.80;;
44116;SDS011;29781;49.480;8.512;2023-05-10T05:27:02;3.75;;;2.90;;
44116;SDS011;29781;49.480;8.512;2023-05-10T05:29:28;2.83;;;2.63;;
44116;SDS011;29781;49.480;8.512;2023-05-10T05:31:54;3.85;;;2.55;;
44116;SDS011;29781;49.480;8.512;2023-05-10T05:34:20;3.00;;;2.70;;
44116;SDS011;29781;49.480;8.512;2023-05-10T05:36:47;7.90;;;3.25;;
44116;SDS011;29781;49.480;8.512;2023-05-10T05:39:12;3.42;;;3.13;;
44116;SDS011;29781;49.480;8.512;2023-05-10T05:41:38;6.32;;;3.90;;
44116;SDS011;29781;49.480;8.512;2023-05-10T05:44:04;5.00;;;4.20;;
44116;SDS011;29781;49.480;8.512;2023-05-10T05:46:29;6.20;;;4.18;;
44116;SDS011;29781;49.480;8.512;2023-05-10T05:48:55;5.43;;;3.53;;
44116;SDS011;29781;49.480;8.512;2023-05-10T05:51:21;4.10;;;3.70;;
44116;SDS011;29781;49.480;8.512;2023-05-10T05:53:46;7.25;;;3.80;;
44116;SDS011;29781;49.480;8.512;2023-05-10T05:56:12;4.20;;;3.80;;
44116;SDS011;29781;49.480;8.512;2023-05-10T05:58:37;4.30;;;3.75;;
44116;SDS011;29781;49.480;8.512;2023-05-10T06:01:03;4.10;;;3.80;;
44116;SDS011;29781;49.480;8.512;2023-05-10T06:03:29;9.32;;;4.22;;
44116;SDS011;29781;49.480;8.512;2023-05-10T06:05:54;4.97;;;3.75;;
44116;SDS011;29781;49.480;8.512;2023-05-10T06:08:20;5.63;;;4.25;;
44116;SDS011;29781;49.480;8.512;2023-05-10T06:10:45;4.80;;;4.30;;
44116;SDS011;29781;49.480;8.512;2023-05-10T06:13:11;6.30;;;5.22;;
44116;SDS011;29781;49.480;8.512;2023-05-10T06:15:37;5.97;;;4.95;;
44116;SDS011;29781;49.480;8.512;2023-05-10T06:18:03;5.00;;;4.50;;
44116;SDS011;29781;49.480;8.512;2023-05-10T06:20:28;5.40;;;4.90;;
44116;SDS011;29781;49.480;8.512;2023-05-10T06:22:56;6.00;;;4.75;;
44116;SDS011;29781;49.480;8.512;2023-05-10T06:25:22;6.82;;;5.78;;
44116;SDS011;29781;49.480;8.512;2023-05-10T06:27:47;7.55;;;5.40;;
44116;SDS011;29781;49.480;8.512;2023-05-10T06:30:13;6.68;;;5.95;;
44116;SDS011;29781;49.480;8.512;2023-05-10T06:32:40;6.28;;;5.68;;
44116;SDS011;29781;49.480;8.512;2023-05-10T06:35:05;5.70;;;5.20;;
44116;SDS011;29781;49.480;8.512;2023-05-10T06:37:31;8.65;;;5.97;;
44116;SDS011;29781;49.480;8.512;2023-05-10T06:39:57;8.02;;;5.82;;
44116;SDS011;29781;49.480;8.512;2023-05-10T06:42:22;9.40;;;6.22;;
44116;SDS011;29781;49.480;8.512;2023-05-10T06:44:50;10.70;;;5.93;;
44116;SDS011;29781;49.480;8.512;2023-05-10T06:47:15;6.47;;;5.68;;
44116;SDS011;29781;49.480;8.512;2023-05-10T06:49:41;6.47;;;5.88;;
44116;SDS011;29781;49.480;8.512;2023-05-10T06:52:06;6.55;;;5.43;;
44116;SDS011;29781;49.480;8.512;2023-05-10T06:54:32;5.75;;;5.05;;
44116;SDS011;29781;49.480;8.512;2023-05-10T06:56:58;4.88;;;4.40;;
44116;SDS011;29781;49.480;8.512;2023-05-10T06:59:23;5.10;;;4.53;;
44116;SDS011;29781;49.480;8.512;2023-05-10T07:01:49;8.65;;;4.20;;
44116;SDS011;29781;49.480;8.512;2023-05-10T07:04:14;4.10;;;3.50;;
44116;SDS011;29781;49.480;8.512;2023-05-10T07:06:40;4.32;;;2.80;;
44116;SDS011;29781;49.480;8.512;2023-05-10T07:09:05;3.63;;;2.97;;
44116;SDS011;29781;49.480;8.512;2023-05-10T07:11:32;3.88;;;2.50;;
44116;SDS011;29781;49.480;8.512;2023-05-10T07:13:58;3.35;;;2.88;;
44116;SDS011;29781;49.480;8.512;2023-05-10T07:16:23;6.80;;;2.70;;
44116;SDS011;29781;49.480;8.512;2023-05-10T07:18:49;3.97;;;2.25;;
44116;SDS011;29781;49.480;8.512;2023-05-10T07:21:15;4.97;;;2.53;;
44116;SDS011;29781;49.480;8.512;2023-05-10T07:23:41;4.45;;;2.80;;
44116;SDS011;29781;49.480;8.512;2023-05-10T07:26:06;3.65;;;2.80;;
44116;SDS011;29781;49.480;8.512;2023-05-10T07:28:32;3.38;;;2.60;;
44116;SDS011;29781;49.480;8.512;2023-05-10T07:30:57;2.90;;;2.70;;
44116;SDS011;29781;49.480;8.512;2023-05-10T07:33:23;2.92;;;2.72;;
44116;SDS011;29781;49.480;8.512;2023-05-10T07:35:49;2.42;;;2.25;;
44116;SDS011;29781;49.480;8.512;2023-05-10T07:38:15;2.90;;;2.53;;
44116;SDS011;29781;49.480;8.512;2023-05-10T07:40:40;2.58;;;2.38;;
44116;SDS011;29781;49.480;8.512;2023-05-10T07:43:06;3.90;;;2.50;;
44116;SDS011;29781;49.480;8.512;2023-05-10T07:45:31;2.75;;;2.00;;
44116;SDS011;29781;49.480;8.512;2023-05-10T07:47:57;1.90;;;1.80;;
44116;SDS011;29781;49.480;8.512;2023-05-10T07:50:23;1.92;;;1.83;;
44116;SDS011;29781;49.480;8.512;2023-05-10T07:52:48;3.85;;;1.88;;
44116;SDS011;29781;49.480;8.512;2023-05-10T07:55:14;1.85;;;1.70;;
44116;SDS011;29781;49.480;8.512;2023-05-10T07:57:40;4.15;;;2.00;;
44116;SDS011;29781;49.480;8.512;2023-05-10T08:00:06;2.20;;;2.00;;
44116;SDS011;29781;49.480;8.512;2023-05-10T08:02:34;2.60;;;1.90;;
44116;SDS011;29781;49.480;8.512;2023-05-10T08:05:00;2.15;;;1.92;;
44116;SDS011;29781;49.480;8.512;2023-05-10T08:07:26;2.47;;;1.90;;
44116;SDS011;29781;49.480;8.512;2023-05-10T08:09:51;2.72;;;1.92;;
44116;SDS011;29781;49.480;8.512;2023-05-10T08:12:17;2.78;;;1.92;;
44116;SDS011;29781;49.480;8.512;2023-05-10T08:14:45;1.80;;;1.70;;
44116;SDS011;29781;49.480;8.512;2023-05-10T08:17:10;1.80;;;1.70;;
44116;SDS011;29781;49.480;8.512;2023-05-10T08:19:36;2.47;;;1.60;;
44116;SDS011;29781;49.480;8.512;2023-05-10T08:22:01;2.55;;;1.75;;
44116;SDS011;29781;49.480;8.512;2023-05-10T08:24:27;1.90;;;1.80;;
44116;SDS011;29781;49.480;8.512;2023-05-10T08:26:52;2.55;;;1.40;;
44116;SDS011;29781;49.480;8.512;2023-05-10T08:29:18;2.92;;;1.70;;
44116;SDS011;29781;49.480;8.512;2023-05-10T08:31:43;3.20;;;1.55;;
44116;SDS011;29781;49.480;8.512;2023-05-10T08:34:10;2.00;;;1.60;;
44116;SDS011;29781;49.480;8.512;2023-05-10T08:36:35;5.57;;;1.92;;
44116;SDS011;29781;49.480;8.512;2023-05-10T08:39:01;3.63;;;1.50;;
44116;SDS011;29781;49.480;8.512;2023-05-10T08:41:27;1.60;;;1.50;;
44116;SDS011;29781;49.480;8.512;2023-05-10T08:43:53;1.75;;;1.65;;
44116;SDS011;29781;49.480;8.512;2023-05-10T08:46:20;3.28;;;1.60;;
44116;SDS011;29781;49.480;8.512;2023-05-10T08:48:47;1.52;;;1.42;;
44116;SDS011;29781;49.480;8.512;2023-05-10T08:51:15;2.47;;;1.50;;
44116;SDS011;29781;49.480;8.512;2023-05-10T08:53:46;2.05;;;1.50;;
44116;SDS011;29781;49.480;8.512;2023-05-10T08:56:12;1.40;;;1.30;;
44116;SDS011;29781;49.480;8.512;2023-05-10T08:58:39;2.97;;;1.63;;
44116;SDS011;29781;49.480;8.512;2023-05-10T09:01:08;3.17;;;1.40;;
44116;SDS011;29781;49.480;8.512;2023-05-10T09:03:37;2.63;;;1.30;;
44116;SDS011;29781;49.480;8.512;2023-05-10T09:06:03;1.38;;;1.27;;
44116;SDS011;29781;49.480;8.512;2023-05-10T09:08:29;1.90;;;1.30;;
44116;SDS011;29781;49.480;8.512;2023-05-10T09:10:56;1.80;;;1.40;;
44116;SDS011;29781;49.480;8.512;2023-05-10T09:13:22;1.63;;;1.50;;
44116;SDS011;29781;49.480;8.512;2023-05-10T09:15:49;3.70;;;1.58;;
44116;SDS011;29781;49.480;8.512;2023-05-10T09:18:15;3.03;;;2.20;;
44116;SDS011;29781;49.480;8.512;2023-05-10T09:20:41;4.47;;;2.30;;
44116;SDS011;29781;49.480;8.512;2023-05-10T09:23:07;7.10;;;1.90;;
44116;SDS011;29781;49.480;8.512;2023-05-10T09:25:32;4.25;;;1.83;;
44116;SDS011;29781;49.480;8.512;2023-05-10T09:27:58;1.80;;;1.70;;
44116;SDS011;29781;49.480;8.512;2023-05-10T09:30:25;2.10;;;1.95;;
44116;SDS011;29781;49.480;8.512;2023-05-10T09:35:28;1.88;;;1.70;;
44116;SDS011;29781;49.480;8.512;2023-05-10T09:37:55;1.60;;;1.50;;
44116;SDS011;29781;49.480;8.512;2023-05-10T09:40:23;3.13;;;1.50;;
44116;SDS011;29781;49.480;8.512;2023-05-10T09:45:23;1.48;;;1.35;;
44116;SDS011;29781;49.480;8.512;2023-05-10T09:47:50;1.30;;;1.20;;
44116;SDS011;29781;49.480;8.512;2023-05-10T09:50:15;3.65;;;1.83;;
44116;SDS011;29781;49.480;8.512;2023-05-10T09:52:48;2.10;;;1.38;;
44116;SDS011;29781;49.480;8.512;2023-05-10T09:55:24;1.70;;;1.60;;
44116;SDS011;29781;49.480;8.512;2023-05-10T09:58:11;2.90;;;1.67;;
44116;SDS011;29781;49.480;8.512;2023-05-10T10:00:38;11.05;;;1.80;;
44116;SDS011;29781;49.480;8.512;2023-05-10T10:03:05;12.13;;;2.78;;
44116;SDS011;29781;49.480;8.512;2023-05-10T10:05:36;8.20;;;2.00;;
44116;SDS011;29781;49.480;8.512;2023-05-10T10:08:05;1.42;;;1.30;;
44116;SDS011;29781;49.480;8.512;2023-05-10T10:10:31;2.88;;;1.27;;
44116;SDS011;29781;49.480;8.512;2023-05-10T10:12:58;5.63;;;1.30;;
44116;SDS011;29781;49.480;8.512;2023-05-10T10:15:24;15.18;;;3.15;;
44116;SDS011;29781;49.480;8.512;2023-05-10T10:17:51;2.28;;;1.20;;
44116;SDS011;29781;49.480;8.512;2023-05-10T10:20:17;1.42;;;0.88;;
44116;SDS011;29781;49.480;8.512;2023-05-10T10:22:44;0.88;;;0.88;;
44116;SDS011;29781;49.480;8.512;2023-05-10T10:25:11;2.47;;;1.30;;
44116;SDS011;29781;49.480;8.512;2023-05-10T10:36:12;2.47;;;1.45;;
44116;SDS011;29781;49.480;8.512;2023-05-10T10:41:27;3.10;;;1.67;;
44116;SDS011;29781;49.480;8.512;2023-05-10T10:52:31;1.73;;;1.20;;
44116;SDS011;29781;49.480;8.512;2023-05-10T10:54:59;2.30;;;1.40;;
44116;SDS011;29781;49.480;8.512;2023-05-10T10:57:46;4.85;;;1.60;;
44116;SDS011;29781;49.480;8.512;2023-05-10T11:00:20;2.55;;;1.20;;
44116;SDS011;29781;49.480;8.512;2023-05-10T11:05:27;3.15;;;1.30;;
44116;SDS011;29781;49.480;8.512;2023-05-10T11:08:07;4.45;;;1.50;;
44116;SDS011;29781;49.480;8.512;2023-05-10T11:10:37;1.30;;;1.20;;
44116;SDS011;29781;49.480;8.512;2023-05-10T11:13:07;2.35;;;1.00;;
44116;SDS011;29781;49.480;8.512;2023-05-10T11:15:35;0.90;;;0.90;;
44116;SDS011;29781;49.480;8.512;2023-05-10T11:18:18;2.85;;;0.82;;
44116;SDS011;29781;49.480;8.512;2023-05-10T11:21:07;1.50;;;0.75;;
44116;SDS011;29781;49.480;8.512;2023-05-10T11:26:17;2.80;;;0.90;;
44116;SDS011;29781;49.480;8.512;2023-05-10T11:28:46;2.00;;;0.60;;
44116;SDS011;29781;49.480;8.512;2023-05-10T11:31:13;1.27;;;0.80;;
44116;SDS011;29781;49.480;8.512;2023-05-10T11:33:43;2.07;;;0.60;;
44116;SDS011;29781;49.480;8.512;2023-05-10T11:39:05;1.05;;;0.70;;
44116;SDS011;29781;49.480;8.512;2023-05-10T11:41:31;1.75;;;0.60;;
44116;SDS011;29781;49.480;8.512;2023-05-10T11:43:57;3.33;;;0.80;;
44116;SDS011;29781;49.480;8.512;2023-05-10T11:46:24;1.00;;;0.77;;
44116;SDS011;29781;49.480;8.512;2023-05-10T11:48:52;3.28;;;0.77;;
44116;SDS011;29781;49.480;8.512;2023-05-10T11:51:19;2.80;;;0.90;;
44116;SDS011;29781;49.480;8.512;2023-05-10T11:53:47;1.52;;;0.85;;
44116;SDS011;29781;49.480;8.512;2023-05-10T11:56:12;1.48;;;0.80;;
44116;SDS011;29781;49.480;8.512;2023-05-10T11:58:38;1.52;;;0.63;;
44116;SDS011;29781;49.480;8.512;2023-05-10T12:01:05;2.05;;;0.80;;
44116;SDS011;29781;49.480;8.512;2023-05-10T12:03:32;1.17;;;0.82;;
44116;SDS011;29781;49.480;8.512;2023-05-10T12:05:58;1.52;;;0.93;;
44116;SDS011;29781;49.480;8.512;2023-05-10T12:08:27;5.30;;;0.95;;
44116;SDS011;29781;49.480;8.512;2023-05-10T12:11:04;1.63;;;0.80;;
44116;SDS011;29781;49.480;8.512;2023-05-10T12:13:37;1.25;;;0.70;;
44116;SDS011;29781;49.480;8.512;2023-05-10T12:16:21;1.10;;;1.00;;
44116;SDS011;29781;49.480;8.512;2023-05-10T12:18:48;2.05;;;0.85;;
44116;SDS011;29781;49.480;8.512;2023-05-10T12:21:18;1.92;;;0.93;;
44116;SDS011;29781;49.480;8.512;2023-05-10T12:23:46;1.77;;;0.90;;
44116;SDS011;29781;49.480;8.512;2023-05-10T12:26:14;3.22;;;0.98;;
44116;SDS011;29781;49.480;8.512;2023-05-10T12:28:40;1.83;;;0.80;;
44116;SDS011;29781;49.480;8.512;2023-05-10T12:31:06;2.70;;;0.80;;
44116;SDS011;29781;49.480;8.512;2023-05-10T12:33:50;1.70;;;0.90;;
44116;SDS011;29781;49.480;8.512;2023-05-10T12:36:15;6.80;;;1.00;;
44116;SDS011;29781;49.480;8.512;2023-05-10T12:38:43;3.33;;;1.08;;
44116;SDS011;29781;49.480;8.512;2023-05-10T12:41:14;4.73;;;1.00;;
44116;SDS011;29781;49.480;8.512;2023-05-10T12:43:40;2.95;;;0.98;;
44116;SDS011;29781;49.480;8.512;2023-05-10T12:46:10;4.45;;;1.17;;
44116;SDS011;29781;49.480;8.512;2023-05-10T12:48:37;1.92;;;0.88;;
44116;SDS011;29781;49.480;8.512;2023-05-10T12:51:04;3.85;;;0.90;;
44116;SDS011;29781;49.480;8.512;2023-05-10T12:53:30;2.70;;;0.85;;
44116;SDS011;29781;49.480;8.512;2023-05-10T12:55:56;4.25;;;1.05;;
44116;SDS011;29781;49.480;8.512;2023-05-10T12:58:21;6.65;;;1.45;;
44116;SDS011;29781;49.480;8.512;2023-05-10T13:00:47;5.57;;;1.30;;
44116;SDS011;29781;49.480;8.512;2023-05-10T13:03:13;1.55;;;1.23;;
44116;SDS011;29781;49.480;8.512;2023-05-10T13:05:39;1.27;;;1.05;;
44116;SDS011;29781;49.480;8.512;2023-05-10T13:08:05;3.88;;;1.00;;
44116;SDS011;29781;49.480;8.512;2023-05-10T13:10:30;1.75;;;1.20;;
44116;SDS011;29781;49.480;8.512;2023-05-10T13:12:56;2.05;;;1.20;;
44116;SDS011;29781;49.480;8.512;2023-05-10T13:15:22;2.58;;;0.98;;
44116;SDS011;29781;49.480;8.512;2023-05-10T13:17:48;1.83;;;0.73;;
44116;SDS011;29781;49.480;8.512;2023-05-10T13:20:14;9.15;;;1.20;;
44116;SDS011;29781;49.480;8.512;2023-05-10T13:22:40;1.40;;;0.88;;
44116;SDS011;29781;49.480;8.512;2023-05-10T13:25:09;2.67;;;1.02;;
44116;SDS011;29781;49.480;8.512;2023-05-10T13:27:34;2.50;;;0.95;;
44116;SDS011;29781;49.480;8.512;2023-05-10T13:30:00;2.58;;;1.00;;
44116;SDS011;29781;49.480;8.512;2023-05-10T13:32:26;1.92;;;0.80;;
44116;SDS011;29781;49.480;8.512;2023-05-10T13:34:52;1.52;;;0.60;;
44116;SDS011;29781;49.480;8.512;2023-05-10T13:37:17;6.88;;;1.20;;
44116;SDS011;29781;49.480;8.512;2023-05-10T13:39:43;1.75;;;0.77;;
44116;SDS011;29781;49.480;8.512;2023-05-10T13:42:08;1.73;;;0.60;;
44116;SDS011;29781;49.480;8.512;2023-05-10T13:44:34;1.00;;;0.60;;
44116;SDS011;29781;49.480;8.512;2023-05-10T13:47:00;1.67;;;0.70;;
44116;SDS011;29781;49.480;8.512;2023-05-10T13:49:26;1.40;;;0.68;;
44116;SDS011;29781;49.480;8.512;2023-05-10T13:51:52;1.77;;;0.60;;
44116;SDS011;29781;49.480;8.512;2023-05-10T13:54:17;3.97;;;1.00;;
44116;SDS011;29781;49.480;8.512;2023-05-10T13:56:44;3.60;;;0.70;;
44116;SDS011;29781;49.480;8.512;2023-05-10T13:59:12;3.00;;;0.63;;
44116;SDS011;29781;49.480;8.512;2023-05-10T14:01:38;2.20;;;0.60;;
44116;SDS011;29781;49.480;8.512;2023-05-10T14:04:04;1.42;;;0.73;;
44116;SDS011;29781;49.480;8.512;2023-05-10T14:06:30;0.80;;;0.60;;
44116;SDS011;29781;49.480;8.512;2023-05-10T14:08:55;1.30;;;0.70;;
44116;SDS011;29781;49.480;8.512;2023-05-10T14:11:21;1.95;;;0.68;;
44116;SDS011;29781;49.480;8.512;2023-05-10T14:13:46;2.83;;;0.60;;
44116;SDS011;29781;49.480;8.512;2023-05-10T14:16:12;1.13;;;0.68;;
44116;SDS011;29781;49.480;8.512;2023-05-10T14:18:39;2.13;;;0.60;;
44116;SDS011;29781;49.480;8.512;2023-05-10T14:21:05;0.90;;;0.73;;
44116;SDS011;29781;49.480;8.512;2023-05-10T14:23:31;1.25;;;0.60;;
44116;SDS011;29781;49.480;8.512;2023-05-10T14:25:56;1.90;;;0.52;;
44116;SDS011;29781;49.480;8.512;2023-05-10T14:28:22;1.17;;;0.50;;
44116;SDS011;29781;49.480;8.512;2023-05-10T14:30:48;1.73;;;0.88;;
44116;SDS011;29781;49.480;8.512;2023-05-10T14:33:14;3.35;;;0.77;;
44116;SDS011;29781;49.480;8.512;2023-05-10T14:35:41;0.90;;;0.40;;
44116;SDS011;29781;49.480;8.512;2023-05-10T14:38:07;2.15;;;0.57;;
44116;SDS011;29781;49.480;8.512;2023-05-10T14:40:32;4.03;;;0.95;;
44116;SDS011;29781;49.480;8.512;2023-05-10T14:42:58;1.33;;;0.40;;
44116;SDS011;29781;49.480;8.512;2023-05-10T14:45:24;3.45;;;0.50;;
44116;SDS011;29781;49.480;8.512;2023-05-10T14:47:49;2.47;;;0.50;;
44116;SDS011;29781;49.480;8.512;2023-05-10T14:50:15;0.57;;;0.50;;
44116;SDS011;29781;49.480;8.512;2023-05-10T14:52:41;1.20;;;0.50;;
44116;SDS011;29781;49.480;8.512;2023-05-10T14:55:07;2.70;;;0.60;;
44116;SDS011;29781;49.480;8.512;2023-05-10T14:57:33;1.35;;;0.40;;
44116;SDS011;29781;49.480;8.512;2023-05-10T14:59:59;2.78;;;0.60;;
44116;SDS011;29781;49.480;8.512;2023-05-10T15:02:24;3.83;;;0.50;;
44116;SDS011;29781;49.480;8.512;2023-05-10T15:04:50;2.92;;;0.50;;
44116;SDS011;29781;49.480;8.512;2023-05-10T15:07:15;5.13;;;0.70;;
44116;SDS011;29781;49.480;8.512;2023-05-10T15:09:43;0.77;;;0.43;;
44116;SDS011;29781;49.480;8.512;2023-05-10T15:12:09;0.70;;;0.43;;
44116;SDS011;29781;49.480;8.512;2023-05-10T15:14:34;0.40;;;0.40;;
44116;SDS011;29781;49.480;8.512;2023-05-10T15:17:01;0.85;;;0.50;;
44116;SDS011;29781;49.480;8.512;2023-05-10T15:19:27;0.70;;;0.50;;
44116;SDS011;29781;49.480;8.512;2023-05-10T15:21:54;0.70;;;0.47;;
44116;SDS011;29781;49.480;8.512;2023-05-10T15:24:20;1.95;;;0.50;;
44116;SDS011;29781;49.480;8.512;2023-05-10T15:26:46;6.15;;;0.60;;
44116;SDS011;29781;49.480;8.512;2023-05-10T15:29:12;5.88;;;0.50;;
44116;SDS011;29781;49.480;8.512;2023-05-10T15:31:44;1.17;;;0.47;;
44116;SDS011;29781;49.480;8.512;2023-05-10T15:34:13;0.30;;;0.30;;